createdAt,value
2017-05-15T00:00:07.870Z,0
2017-05-15T00:01:09.120Z,0
2017-05-15T00:02:10.406Z,0
2017-05-15T00:03:11.699Z,0
2017-05-15T00:04:13.203Z,0
2017-05-15T00:05:14.483Z,0
2017-05-15T00:06:15.767Z,0
2017-05-15T00:07:17.033Z,0
2017-05-15T00:08:18.420Z,0
2017-05-15T00:09:19.740Z,0
2017-05-15T00:10:20.992Z,0
2017-05-15T00:11:22.261Z,0
2017-05-15T00:12:23.572Z,0
2017-05-15T00:13:24.829Z,0
2017-05-15T00:14:26.112Z,0
2017-05-15T00:15:27.386Z,0
2017-05-15T00:16:28.674Z,0
2017-05-15T00:17:29.992Z,0
2017-05-15T00:18:31.249Z,0
2017-05-15T00:19:32.508Z,0
2017-05-15T00:20:33.857Z,0
2017-05-15T00:21:35.070Z,0
2017-05-15T00:22:36.338Z,0
2017-05-15T00:23:37.599Z,0
2017-05-15T00:24:38.830Z,0
2017-05-15T00:25:40.110Z,0
2017-05-15T00:26:41.444Z,0
2017-05-15T00:27:42.744Z,0
2017-05-15T00:28:43.998Z,0
2017-05-15T00:29:45.246Z,0
2017-05-15T00:30:46.509Z,0
2017-05-15T00:31:47.752Z,0
2017-05-15T00:32:49.030Z,0
2017-05-15T00:33:50.272Z,0
2017-05-15T00:34:51.507Z,0
2017-05-15T00:35:52.788Z,0
2017-05-15T00:36:54.044Z,0
2017-05-15T00:37:55.491Z,0
2017-05-15T00:38:56.713Z,0
2017-05-15T00:39:57.955Z,0
2017-05-15T00:40:59.223Z,0
2017-05-15T00:42:00.513Z,0
2017-05-15T00:43:01.771Z,0
2017-05-15T00:44:03.150Z,0
2017-05-15T00:45:04.343Z,0
2017-05-15T00:46:05.590Z,0
2017-05-15T00:47:06.867Z,0
2017-05-15T00:48:08.115Z,0
2017-05-15T00:49:09.399Z,0
2017-05-15T00:50:10.637Z,0
2017-05-15T00:51:11.954Z,0
2017-05-15T00:52:13.206Z,0
2017-05-15T00:53:14.461Z,0
2017-05-15T00:54:15.716Z,0
2017-05-15T00:55:16.984Z,0
2017-05-15T00:56:18.259Z,0
2017-05-15T00:57:19.500Z,0
2017-05-15T00:58:20.789Z,0
2017-05-15T00:59:22.056Z,0
2017-05-15T01:00:23.330Z,0
2017-05-15T01:01:24.563Z,0
2017-05-15T01:02:25.811Z,0
2017-05-15T01:03:27.069Z,0
2017-05-15T01:04:28.341Z,0
2017-05-15T01:05:29.593Z,0
2017-05-15T01:06:30.862Z,0
2017-05-15T01:07:32.112Z,0
2017-05-15T01:08:33.519Z,0
2017-05-15T01:09:34.779Z,0
2017-05-15T01:10:36.043Z,0
2017-05-15T01:11:37.400Z,0
2017-05-15T01:12:38.647Z,0
2017-05-15T01:13:39.898Z,0
2017-05-15T01:14:41.233Z,0
2017-05-15T01:15:42.521Z,0
2017-05-15T01:16:43.755Z,0
2017-05-15T01:17:45.022Z,0
2017-05-15T01:18:46.301Z,0
2017-05-15T01:19:47.653Z,0
2017-05-15T01:20:48.905Z,0
2017-05-15T01:21:50.186Z,0
2017-05-15T01:22:51.441Z,0
2017-05-15T01:23:52.678Z,0
2017-05-15T01:24:54.005Z,0
2017-05-15T01:25:55.320Z,0
2017-05-15T01:26:56.550Z,0
2017-05-15T01:27:57.921Z,0
2017-05-15T01:28:59.295Z,0
2017-05-15T01:30:00.582Z,0
2017-05-15T01:31:01.811Z,0
2017-05-15T01:32:03.098Z,0
2017-05-15T01:33:04.320Z,0
2017-05-15T01:34:05.646Z,0
2017-05-15T01:35:06.926Z,0
2017-05-15T01:36:08.213Z,0
2017-05-15T01:37:09.506Z,0
2017-05-15T01:38:10.716Z,0
2017-05-15T01:39:12.075Z,0
2017-05-15T01:40:13.369Z,0
2017-05-15T01:41:14.618Z,0
2017-05-15T01:42:15.969Z,0
2017-05-15T01:43:17.278Z,0
2017-05-15T01:44:18.583Z,0
2017-05-15T01:45:19.836Z,0
2017-05-15T01:46:21.073Z,0
2017-05-15T01:47:22.334Z,0
2017-05-15T01:48:23.597Z,0
2017-05-15T01:49:24.866Z,0
2017-05-15T01:50:26.122Z,0
2017-05-15T01:51:27.360Z,0
2017-05-15T01:52:28.611Z,0
2017-05-15T01:53:29.986Z,0
2017-05-15T01:54:31.273Z,0
2017-05-15T01:55:32.517Z,0
2017-05-15T01:56:33.779Z,0
2017-05-15T01:57:35.076Z,0
2017-05-15T01:58:36.464Z,0
2017-05-15T01:59:37.711Z,0
2017-05-15T02:00:38.992Z,0
2017-05-15T02:01:40.235Z,0
2017-05-15T02:02:41.465Z,0
2017-05-15T02:03:42.761Z,0
2017-05-15T02:04:44.028Z,0
2017-05-15T02:05:45.319Z,0
2017-05-15T02:06:46.590Z,0
2017-05-15T02:07:47.827Z,0
2017-05-15T02:08:49.098Z,0
2017-05-15T02:09:50.387Z,0
2017-05-15T02:10:51.744Z,0
2017-05-15T02:11:53.030Z,0
2017-05-15T02:12:54.292Z,0
2017-05-15T02:13:55.559Z,0
2017-05-15T02:14:56.904Z,0
2017-05-15T02:15:58.159Z,0
2017-05-15T02:16:59.440Z,0
2017-05-15T02:18:00.693Z,0
2017-05-15T02:19:01.966Z,0
2017-05-15T02:20:03.245Z,0
2017-05-15T02:21:04.516Z,0
2017-05-15T02:22:05.775Z,0
2017-05-15T02:23:07.096Z,0
2017-05-15T02:24:08.381Z,0
2017-05-15T02:25:09.634Z,0
2017-05-15T02:26:10.859Z,0
2017-05-15T02:27:12.128Z,0
2017-05-15T02:28:13.561Z,0
2017-05-15T02:29:14.796Z,0
2017-05-15T02:30:16.061Z,0
2017-05-15T02:31:17.330Z,0
2017-05-15T02:32:18.748Z,0
2017-05-15T02:33:20.076Z,0
2017-05-15T02:34:21.359Z,0
2017-05-15T02:35:22.602Z,0
2017-05-15T02:36:23.845Z,0
2017-05-15T02:37:25.147Z,0
2017-05-15T02:38:26.426Z,0
2017-05-15T02:39:27.739Z,0
2017-05-15T02:40:28.976Z,0
2017-05-15T02:41:30.241Z,0
2017-05-15T02:42:31.501Z,0
2017-05-15T02:43:32.712Z,0
2017-05-15T02:44:33.974Z,0
2017-05-15T02:45:35.235Z,0
2017-05-15T02:46:36.462Z,0
2017-05-15T02:47:37.731Z,0
2017-05-15T02:48:38.992Z,0
2017-05-15T02:49:40.269Z,0
2017-05-15T02:50:41.603Z,0
2017-05-15T02:51:42.869Z,0
2017-05-15T02:52:44.120Z,0
2017-05-15T02:53:45.365Z,0
2017-05-15T02:54:46.651Z,0
2017-05-15T02:55:47.949Z,0
2017-05-15T02:56:49.236Z,0
2017-05-15T02:57:50.449Z,0
2017-05-15T02:58:51.746Z,0
2017-05-15T02:59:53.001Z,0
2017-05-15T03:00:54.272Z,0
2017-05-15T03:01:55.645Z,0
2017-05-15T03:02:57.000Z,0
2017-05-15T03:03:58.247Z,0
2017-05-15T03:04:59.525Z,0
2017-05-15T03:06:00.747Z,0
2017-05-15T03:07:01.996Z,0
2017-05-15T03:08:03.264Z,0
2017-05-15T03:09:04.507Z,0
2017-05-15T03:10:05.770Z,0
2017-05-15T03:11:07.071Z,0
2017-05-15T03:12:08.372Z,0
2017-05-15T03:13:09.623Z,0
2017-05-15T03:14:10.865Z,0
2017-05-15T03:15:12.108Z,0
2017-05-15T03:16:13.368Z,0
2017-05-15T03:17:14.617Z,0
2017-05-15T03:18:15.899Z,0
2017-05-15T03:19:17.159Z,0
2017-05-15T03:20:18.442Z,0
2017-05-15T03:21:19.681Z,0
2017-05-15T03:22:20.935Z,0
2017-05-15T03:23:22.197Z,0
2017-05-15T03:24:23.462Z,5
2017-05-15T03:25:24.745Z,5
2017-05-15T03:26:26.041Z,5
2017-05-15T03:27:27.313Z,5
2017-05-15T03:28:28.539Z,5
2017-05-15T03:29:29.793Z,5
2017-05-15T03:30:31.160Z,5
2017-05-15T03:31:32.415Z,10
2017-05-15T03:32:33.692Z,10
2017-05-15T03:33:34.949Z,10
2017-05-15T03:34:36.357Z,10
2017-05-15T03:35:37.682Z,10
2017-05-15T03:36:38.908Z,15
2017-05-15T03:37:40.151Z,15
2017-05-15T03:38:41.532Z,15
2017-05-15T03:39:42.749Z,15
2017-05-15T03:40:44.213Z,20
2017-05-15T03:41:45.539Z,20
2017-05-15T03:42:46.774Z,20
2017-05-15T03:43:48.035Z,20
2017-05-15T03:44:49.311Z,25
2017-05-15T03:45:50.560Z,25
2017-05-15T03:46:51.868Z,25
2017-05-15T03:47:53.164Z,25
2017-05-15T03:48:54.375Z,30
2017-05-15T03:49:55.625Z,30
2017-05-15T03:50:56.873Z,35
2017-05-15T03:51:58.214Z,35
2017-05-15T03:52:59.661Z,40
2017-05-15T03:54:00.888Z,40
2017-05-15T03:55:02.139Z,40
2017-05-15T03:56:03.406Z,45
2017-05-15T03:57:04.667Z,45
2017-05-15T03:58:05.914Z,45
2017-05-15T03:59:07.161Z,50
2017-05-15T04:00:08.396Z,50
2017-05-15T04:01:09.668Z,55
2017-05-15T04:02:10.910Z,55
2017-05-15T04:03:12.193Z,55
2017-05-15T04:04:13.530Z,60
2017-05-15T04:05:14.751Z,60
2017-05-15T04:06:16.150Z,65
2017-05-15T04:07:17.419Z,65
2017-05-15T04:08:18.663Z,65
2017-05-15T04:09:20.062Z,70
2017-05-15T04:10:21.301Z,70
2017-05-15T04:11:22.569Z,75
2017-05-15T04:12:23.886Z,75
2017-05-15T04:13:25.135Z,80
2017-05-15T04:14:26.410Z,80
2017-05-15T04:15:27.640Z,80
2017-05-15T04:16:28.945Z,85
2017-05-15T04:17:30.241Z,85
2017-05-15T04:18:31.532Z,90
2017-05-15T04:19:32.789Z,90
2017-05-15T04:20:34.085Z,90
2017-05-15T04:21:35.303Z,95
2017-05-15T04:22:36.574Z,95
2017-05-15T04:23:37.820Z,95
2017-05-15T04:24:39.065Z,100
2017-05-15T04:25:40.363Z,100
2017-05-15T04:26:41.632Z,105
2017-05-15T04:27:42.967Z,115
2017-05-15T04:28:44.295Z,115
2017-05-15T04:29:45.557Z,110
2017-05-15T04:30:46.827Z,110
2017-05-15T04:31:48.088Z,110
2017-05-15T04:32:49.445Z,115
2017-05-15T04:33:50.762Z,115
2017-05-15T04:34:52.031Z,115
2017-05-15T04:35:53.285Z,120
2017-05-15T04:36:54.578Z,120
2017-05-15T04:37:55.849Z,125
2017-05-15T04:38:57.183Z,130
2017-05-15T04:39:58.411Z,130
2017-05-15T04:40:59.678Z,130
2017-05-15T04:42:00.912Z,130
2017-05-15T04:43:02.218Z,135
2017-05-15T04:44:03.501Z,135
2017-05-15T04:45:04.818Z,140
2017-05-15T04:46:06.282Z,140
2017-05-15T04:47:07.653Z,145
2017-05-15T04:48:08.894Z,145
2017-05-15T04:49:10.132Z,150
2017-05-15T04:50:11.374Z,150
2017-05-15T04:51:12.637Z,155
2017-05-15T04:52:13.999Z,160
2017-05-15T04:53:15.241Z,165
2017-05-15T04:54:16.496Z,170
2017-05-15T04:55:17.746Z,175
2017-05-15T04:56:19.010Z,180
2017-05-15T04:57:20.321Z,180
2017-05-15T04:58:21.625Z,180
2017-05-15T04:59:22.864Z,180
2017-05-15T05:00:24.098Z,195
2017-05-15T05:01:25.357Z,210
2017-05-15T05:02:26.604Z,215
2017-05-15T05:03:27.906Z,245
2017-05-15T05:04:29.143Z,285
2017-05-15T05:05:30.403Z,300
2017-05-15T05:06:31.752Z,300
2017-05-15T05:07:32.987Z,315
2017-05-15T05:08:34.278Z,340
2017-05-15T05:09:35.545Z,365
2017-05-15T05:10:36.805Z,360
2017-05-15T05:11:38.132Z,375
2017-05-15T05:12:39.379Z,340
2017-05-15T05:13:40.626Z,290
2017-05-15T05:14:41.953Z,275
2017-05-15T05:15:43.208Z,285
2017-05-15T05:16:44.589Z,325
2017-05-15T05:17:45.868Z,370
2017-05-15T05:18:47.140Z,360
2017-05-15T05:19:48.402Z,340
2017-05-15T05:20:49.781Z,365
2017-05-15T05:21:51.038Z,430
2017-05-15T05:22:52.273Z,500
2017-05-15T05:23:53.540Z,460
2017-05-15T05:24:54.799Z,380
2017-05-15T05:25:56.044Z,360
2017-05-15T05:26:57.311Z,375
2017-05-15T05:27:58.663Z,410
2017-05-15T05:28:59.920Z,435
2017-05-15T05:30:01.158Z,440
2017-05-15T05:31:02.397Z,480
2017-05-15T05:32:03.707Z,515
2017-05-15T05:33:05.035Z,455
2017-05-15T05:34:06.330Z,450
2017-05-15T05:35:07.621Z,430
2017-05-15T05:36:08.891Z,445
2017-05-15T05:37:10.153Z,555
2017-05-15T05:38:11.431Z,615
2017-05-15T05:39:12.715Z,635
2017-05-15T05:40:14.030Z,560
2017-05-15T05:41:15.282Z,545
2017-05-15T05:42:16.530Z,610
2017-05-15T05:43:18.054Z,555
2017-05-15T05:44:19.328Z,660
2017-05-15T05:45:20.644Z,810
2017-05-15T05:46:21.953Z,845
2017-05-15T05:47:23.237Z,810
2017-05-15T05:48:24.481Z,885
2017-05-15T05:49:25.756Z,895
2017-05-15T05:50:27.019Z,925
2017-05-15T05:51:28.357Z,945
2017-05-15T05:52:29.647Z,965
2017-05-15T05:53:30.914Z,970
2017-05-15T05:54:32.182Z,985
2017-05-15T05:55:33.547Z,1000
2017-05-15T05:56:34.797Z,1000
2017-05-15T05:57:36.204Z,1020
2017-05-15T05:58:37.464Z,1040
2017-05-15T05:59:38.753Z,1045
2017-05-15T06:00:40.035Z,995
2017-05-15T06:01:41.287Z,1040
2017-05-15T06:02:42.640Z,1095
2017-05-15T06:03:43.917Z,1110
2017-05-15T06:04:45.161Z,1095
2017-05-15T06:05:46.431Z,1135
2017-05-15T06:06:47.830Z,1155
2017-05-15T06:07:49.178Z,1190
2017-05-15T06:08:50.491Z,1205
2017-05-15T06:09:51.883Z,1205
2017-05-15T06:10:53.261Z,1230
2017-05-15T06:11:54.436Z,1265
2017-05-15T06:12:55.899Z,1240
2017-05-15T06:13:57.132Z,1265
2017-05-15T06:14:58.399Z,1270
2017-05-15T06:15:59.666Z,1280
2017-05-15T06:17:00.955Z,1295
2017-05-15T06:18:02.269Z,1320
2017-05-15T06:19:03.559Z,1335
2017-05-15T06:20:04.820Z,1315
2017-05-15T06:21:06.092Z,1340
2017-05-15T06:22:07.512Z,1410
2017-05-15T06:23:08.775Z,1430
2017-05-15T06:24:10.148Z,1440
2017-05-15T06:25:11.437Z,1430
2017-05-15T06:26:12.701Z,1315
2017-05-15T06:27:14.005Z,1130
2017-05-15T06:28:15.253Z,1050
2017-05-15T06:29:16.515Z,1175
2017-05-15T06:30:17.814Z,1375
2017-05-15T06:31:19.091Z,1445
2017-05-15T06:32:20.332Z,1535
2017-05-15T06:33:21.617Z,1535
2017-05-15T06:34:22.966Z,1580
2017-05-15T06:35:24.240Z,1595
2017-05-15T06:36:25.512Z,1625
2017-05-15T06:37:26.778Z,1645
2017-05-15T06:38:28.057Z,1645
2017-05-15T06:39:29.329Z,1650
2017-05-15T06:40:30.617Z,1700
2017-05-15T06:41:31.887Z,1695
2017-05-15T06:42:33.307Z,1725
2017-05-15T06:43:34.583Z,1745
2017-05-15T06:44:35.851Z,1790
2017-05-15T06:45:37.145Z,1745
2017-05-15T06:46:38.422Z,1740
2017-05-15T06:47:39.728Z,1770
2017-05-15T06:48:40.991Z,1815
2017-05-15T06:49:42.316Z,1810
2017-05-15T06:50:43.695Z,1775
2017-05-15T06:51:45.116Z,1875
2017-05-15T06:52:46.426Z,1895
2017-05-15T06:53:47.714Z,1950
2017-05-15T06:54:49.001Z,1940
2017-05-15T06:55:50.282Z,2000
2017-05-15T06:56:51.541Z,2005
2017-05-15T06:57:52.981Z,2010
2017-05-15T06:58:54.175Z,2095
2017-05-15T06:59:55.480Z,2140
2017-05-15T07:00:56.719Z,2155
2017-05-15T07:01:57.996Z,2150
2017-05-15T07:02:59.393Z,2145
2017-05-15T07:04:00.683Z,2200
2017-05-15T07:05:01.952Z,2195
2017-05-15T07:06:03.236Z,2205
2017-05-15T07:07:04.491Z,2175
2017-05-15T07:08:05.754Z,2130
2017-05-15T07:09:07.063Z,2150
2017-05-15T07:10:08.343Z,2225
2017-05-15T07:11:09.635Z,2180
2017-05-15T07:12:10.916Z,2200
2017-05-15T07:13:12.177Z,2180
2017-05-15T07:14:13.436Z,2120
2017-05-15T07:15:14.695Z,2010
2017-05-15T07:16:15.992Z,1950
2017-05-15T07:17:17.333Z,1860
2017-05-15T07:18:18.620Z,1755
2017-05-15T07:19:19.892Z,1760
2017-05-15T07:20:21.145Z,1840
2017-05-15T07:21:22.411Z,1890
2017-05-15T07:22:23.710Z,1975
2017-05-15T07:23:25.007Z,2120
2017-05-15T07:24:26.268Z,2220
2017-05-15T07:25:27.694Z,2320
2017-05-15T07:26:28.963Z,2350
2017-05-15T07:27:30.284Z,2420
2017-05-15T07:28:31.576Z,2460
2017-05-15T07:29:32.844Z,2470
2017-05-15T07:30:34.110Z,2510
2017-05-15T07:31:35.473Z,2545
2017-05-15T07:32:36.683Z,2665
2017-05-15T07:33:38.009Z,2660
2017-05-15T07:34:39.422Z,2650
2017-05-15T07:35:40.697Z,2680
2017-05-15T07:36:42.015Z,2755
2017-05-15T07:37:43.286Z,2725
2017-05-15T07:38:44.551Z,2595
2017-05-15T07:39:45.866Z,2540
2017-05-15T07:40:47.153Z,2480
2017-05-15T07:41:48.411Z,2420
2017-05-15T07:42:49.689Z,2430
2017-05-15T07:43:51.069Z,2470
2017-05-15T07:44:52.347Z,2515
2017-05-15T07:45:53.635Z,2525
2017-05-15T07:46:54.908Z,2525
2017-05-15T07:47:56.154Z,2580
2017-05-15T07:48:57.416Z,2625
2017-05-15T07:49:58.704Z,2610
2017-05-15T07:51:00.051Z,2660
2017-05-15T07:52:01.408Z,2660
2017-05-15T07:53:02.738Z,2655
2017-05-15T07:54:04.031Z,2710
2017-05-15T07:55:05.288Z,2740
2017-05-15T07:56:06.649Z,2710
2017-05-15T07:57:08.087Z,2730
2017-05-15T07:58:09.373Z,2840
2017-05-15T07:59:10.620Z,2880
2017-05-15T08:00:11.981Z,2925
2017-05-15T08:01:13.359Z,2775
2017-05-15T08:02:14.665Z,2720
2017-05-15T08:03:16.059Z,2875
2017-05-15T08:04:17.340Z,2870
2017-05-15T08:05:18.673Z,2970
2017-05-15T08:06:19.924Z,3120
2017-05-15T08:07:21.181Z,2960
2017-05-15T08:08:22.487Z,2870
2017-05-15T08:09:23.769Z,2930
2017-05-15T08:10:25.023Z,2935
2017-05-15T08:11:26.368Z,3025
2017-05-15T08:12:27.732Z,2930
2017-05-15T08:13:29.004Z,2920
2017-05-15T08:14:30.279Z,3050
2017-05-15T08:15:31.646Z,3075
2017-05-15T08:16:32.944Z,3015
2017-05-15T08:17:34.306Z,3045
2017-05-15T08:18:35.645Z,3015
2017-05-15T08:19:36.945Z,3020
2017-05-15T08:20:38.152Z,3035
2017-05-15T08:21:39.464Z,2935
2017-05-15T08:22:40.931Z,3065
2017-05-15T08:23:42.140Z,3015
2017-05-15T08:24:43.418Z,3045
2017-05-15T08:25:44.716Z,3010
2017-05-15T08:26:46.025Z,2910
2017-05-15T08:27:47.276Z,2995
2017-05-15T08:28:48.567Z,3085
2017-05-15T08:29:49.912Z,3135
2017-05-15T08:30:51.171Z,3090
2017-05-15T08:31:52.434Z,3070
2017-05-15T08:32:53.739Z,3035
2017-05-15T08:33:55.070Z,3060
2017-05-15T08:34:56.362Z,3065
2017-05-15T08:35:57.662Z,2940
2017-05-15T08:36:58.929Z,2915
2017-05-15T08:38:00.224Z,3070
2017-05-15T08:39:01.519Z,2950
2017-05-15T08:40:02.767Z,2880
2017-05-15T08:41:04.246Z,2980
2017-05-15T08:42:05.457Z,3095
2017-05-15T08:43:06.715Z,3055
2017-05-15T08:44:08.030Z,2985
2017-05-15T08:45:09.444Z,3120
2017-05-15T08:46:10.708Z,3020
2017-05-15T08:47:11.994Z,3085
2017-05-15T08:48:13.249Z,3050
2017-05-15T08:49:14.520Z,2980
2017-05-15T08:50:15.813Z,2915
2017-05-15T08:51:17.054Z,3090
2017-05-15T08:52:18.328Z,3150
2017-05-15T08:53:19.605Z,3160
2017-05-15T08:54:20.871Z,3165
2017-05-15T08:55:22.136Z,3040
2017-05-15T08:56:23.389Z,3175
2017-05-15T08:57:24.698Z,3155
2017-05-15T08:58:26.002Z,2940
2017-05-15T08:59:27.282Z,3060
2017-05-15T09:00:28.507Z,3320
2017-05-15T09:01:29.792Z,3350
2017-05-15T09:02:31.143Z,3320
2017-05-15T09:03:32.379Z,3225
2017-05-15T09:04:33.673Z,1920
2017-05-15T09:05:34.943Z,3435
2017-05-15T09:06:36.201Z,3450
2017-05-15T09:07:37.508Z,3365
2017-05-15T09:08:38.747Z,3385
2017-05-15T09:09:40.018Z,3100
2017-05-15T09:10:41.322Z,3540
2017-05-15T09:11:42.596Z,2860
2017-05-15T09:12:43.875Z,3140
2017-05-15T09:13:45.119Z,3130
2017-05-15T09:14:46.377Z,2990
2017-05-15T09:15:47.717Z,3145
2017-05-15T09:16:49.011Z,3235
2017-05-15T09:17:50.256Z,3165
2017-05-15T09:18:51.529Z,3700
2017-05-15T09:19:52.768Z,3555
2017-05-15T09:20:54.058Z,3530
2017-05-15T09:21:55.324Z,3550
2017-05-15T09:22:56.634Z,3225
2017-05-15T09:23:57.906Z,3540
2017-05-15T09:24:59.220Z,3210
2017-05-15T09:26:00.478Z,3535
2017-05-15T09:27:01.839Z,3520
2017-05-15T09:28:03.119Z,3405
2017-05-15T09:29:04.406Z,3670
2017-05-15T09:30:05.675Z,3385
2017-05-15T09:31:06.976Z,3465
2017-05-15T09:32:08.268Z,3570
2017-05-15T09:33:09.527Z,3575
2017-05-15T09:34:10.817Z,3490
2017-05-15T09:35:12.108Z,3520
2017-05-15T09:36:13.426Z,3615
2017-05-15T09:37:14.654Z,3200
2017-05-15T09:38:15.925Z,3870
2017-05-15T09:39:17.186Z,3530
2017-05-15T09:40:18.463Z,3690
2017-05-15T09:41:19.736Z,3700
2017-05-15T09:42:20.991Z,3405
2017-05-15T09:43:22.290Z,3465
2017-05-15T09:44:23.585Z,3715
2017-05-15T09:45:24.896Z,3635
2017-05-15T09:46:26.159Z,3575
2017-05-15T09:47:27.468Z,3350
2017-05-15T09:48:28.803Z,3490
2017-05-15T09:49:30.050Z,3700
2017-05-15T09:50:31.377Z,3545
2017-05-15T09:51:32.668Z,3580
2017-05-15T09:52:33.931Z,3775
2017-05-15T09:53:35.208Z,3690
2017-05-15T09:54:36.515Z,3760
2017-05-15T09:55:37.854Z,3460
2017-05-15T09:56:39.173Z,3420
2017-05-15T09:57:40.459Z,2655
2017-05-15T09:58:41.759Z,3535
2017-05-15T09:59:43.038Z,3635
2017-05-15T10:00:44.296Z,3720
2017-05-15T10:01:45.571Z,3605
2017-05-15T10:02:46.863Z,3720
2017-05-15T10:03:48.238Z,2070
2017-05-15T10:04:49.508Z,1220
2017-05-15T10:05:50.789Z,2675
2017-05-15T10:06:52.087Z,3950
2017-05-15T10:07:53.376Z,3800
2017-05-15T10:08:54.666Z,3690
2017-05-15T10:09:55.969Z,3410
2017-05-15T10:10:57.269Z,3405
2017-05-15T10:11:58.537Z,3435
2017-05-15T10:12:59.901Z,3420
2017-05-15T10:14:01.142Z,690
2017-05-15T10:15:02.415Z,490
2017-05-15T10:16:03.718Z,525
2017-05-15T10:17:04.980Z,590
2017-05-15T10:18:06.265Z,525
2017-05-15T10:19:07.590Z,550
2017-05-15T10:20:08.867Z,825
2017-05-15T10:21:10.187Z,685
2017-05-15T10:22:11.473Z,655
2017-05-15T10:23:12.733Z,690
2017-05-15T10:24:14.008Z,1060
2017-05-15T10:25:15.400Z,3285
2017-05-15T10:26:16.710Z,3135
2017-05-15T10:27:18.038Z,3080
2017-05-15T10:28:19.355Z,2965
2017-05-15T10:29:20.627Z,2830
2017-05-15T10:30:22.018Z,3135
2017-05-15T10:31:23.228Z,2915
2017-05-15T10:32:24.483Z,1325
2017-05-15T10:33:25.767Z,560
2017-05-15T10:34:27.162Z,550
2017-05-15T10:35:28.465Z,545
2017-05-15T10:36:29.777Z,545
2017-05-15T10:37:31.058Z,515
2017-05-15T10:38:32.297Z,485
2017-05-15T10:39:33.572Z,490
2017-05-15T10:40:34.811Z,550
2017-05-15T10:41:36.119Z,570
2017-05-15T10:42:37.437Z,570
2017-05-15T10:43:38.712Z,585
2017-05-15T10:44:39.941Z,555
2017-05-15T10:45:41.200Z,520
2017-05-15T10:46:42.492Z,495
2017-05-15T10:47:43.787Z,480
2017-05-15T10:48:45.039Z,445
2017-05-15T10:49:46.408Z,425
2017-05-15T10:50:47.674Z,415
2017-05-15T10:51:48.974Z,405
2017-05-15T10:52:50.213Z,435
2017-05-15T10:53:51.527Z,470
2017-05-15T10:54:52.901Z,445
2017-05-15T10:55:54.179Z,435
2017-05-15T10:56:55.453Z,420
2017-05-15T10:57:56.742Z,410
2017-05-15T10:58:58.008Z,395
2017-05-15T10:59:59.390Z,385
2017-05-15T11:01:00.689Z,380
2017-05-15T11:02:01.999Z,375
2017-05-15T11:03:03.264Z,380
2017-05-15T11:04:04.536Z,380
2017-05-15T11:05:05.806Z,380
2017-05-15T11:06:07.063Z,380
2017-05-15T11:07:08.306Z,380
2017-05-15T11:08:09.612Z,375
2017-05-15T11:09:10.860Z,380
2017-05-15T11:10:12.123Z,380
2017-05-15T11:11:13.416Z,380
2017-05-15T11:12:14.678Z,375
2017-05-15T11:13:15.927Z,370
2017-05-15T11:14:17.181Z,375
2017-05-15T11:15:18.444Z,380
2017-05-15T11:16:19.813Z,355
2017-05-15T11:17:21.171Z,345
2017-05-15T11:18:22.442Z,340
2017-05-15T11:19:23.719Z,345
2017-05-15T11:20:25.019Z,345
2017-05-15T11:21:26.278Z,335
2017-05-15T11:22:27.581Z,320
2017-05-15T11:23:28.906Z,315
2017-05-15T11:24:30.174Z,305
2017-05-15T11:25:31.447Z,300
2017-05-15T11:26:32.759Z,300
2017-05-15T11:27:34.040Z,280
2017-05-15T11:28:35.305Z,275
2017-05-15T11:29:36.559Z,270
2017-05-15T11:30:37.813Z,285
2017-05-15T11:31:39.071Z,280
2017-05-15T11:32:40.389Z,310
2017-05-15T11:33:41.709Z,330
2017-05-15T11:34:42.996Z,315
2017-05-15T11:35:44.324Z,300
2017-05-15T11:36:45.616Z,300
2017-05-15T11:37:46.907Z,295
2017-05-15T11:38:48.129Z,295
2017-05-15T11:39:49.392Z,315
2017-05-15T11:40:50.770Z,310
2017-05-15T11:41:52.106Z,320
2017-05-15T11:42:53.401Z,335
2017-05-15T11:43:54.663Z,355
2017-05-15T11:44:55.926Z,350
2017-05-15T11:45:57.339Z,330
2017-05-15T11:46:58.755Z,305
2017-05-15T11:48:00.069Z,285
2017-05-15T11:49:01.323Z,275
2017-05-15T11:50:02.596Z,265
2017-05-15T11:51:03.954Z,260
2017-05-15T11:52:05.230Z,255
2017-05-15T11:53:06.527Z,250
2017-05-15T11:54:07.943Z,250
2017-05-15T11:55:09.138Z,255
2017-05-15T11:56:10.415Z,260
2017-05-15T11:57:11.658Z,265
2017-05-15T11:58:12.927Z,270
2017-05-15T11:59:14.234Z,260
2017-05-15T12:00:15.522Z,250
2017-05-15T12:01:16.742Z,245
2017-05-15T12:02:18.021Z,245
2017-05-15T12:03:19.300Z,245
2017-05-15T12:04:20.581Z,245
2017-05-15T12:05:21.888Z,245
2017-05-15T12:06:23.188Z,245
2017-05-15T12:07:24.418Z,250
2017-05-15T12:08:25.842Z,250
2017-05-15T12:09:27.116Z,255
2017-05-15T12:10:28.411Z,265
2017-05-15T12:11:29.687Z,270
2017-05-15T12:12:30.916Z,280
2017-05-15T12:13:32.155Z,305
2017-05-15T12:14:33.482Z,320
2017-05-15T12:15:34.851Z,335
2017-05-15T12:16:36.236Z,365
2017-05-15T12:17:37.543Z,365
2017-05-15T12:18:38.804Z,360
2017-05-15T12:19:40.157Z,380
2017-05-15T12:20:41.429Z,390
2017-05-15T12:21:42.745Z,395
2017-05-15T12:22:44.001Z,410
2017-05-15T12:23:45.262Z,410
2017-05-15T12:24:46.538Z,400
2017-05-15T12:25:47.819Z,420
2017-05-15T12:26:49.068Z,425
2017-05-15T12:27:50.319Z,415
2017-05-15T12:28:51.626Z,430
2017-05-15T12:29:52.862Z,435
2017-05-15T12:30:54.174Z,415
2017-05-15T12:31:55.461Z,410
2017-05-15T12:32:56.742Z,400
2017-05-15T12:33:58.167Z,395
2017-05-15T12:34:59.424Z,395
2017-05-15T12:36:00.715Z,395
2017-05-15T12:37:01.949Z,410
2017-05-15T12:38:03.321Z,440
2017-05-15T12:39:04.602Z,460
2017-05-15T12:40:05.881Z,470
2017-05-15T12:41:07.200Z,455
2017-05-15T12:42:08.427Z,410
2017-05-15T12:43:09.682Z,375
2017-05-15T12:44:10.951Z,360
2017-05-15T12:45:12.248Z,365
2017-05-15T12:46:13.483Z,380
2017-05-15T12:47:14.788Z,380
2017-05-15T12:48:16.025Z,380
2017-05-15T12:49:17.370Z,375
2017-05-15T12:50:18.757Z,355
2017-05-15T12:51:20.147Z,355
2017-05-15T12:52:21.394Z,345
2017-05-15T12:53:22.672Z,355
2017-05-15T12:54:23.931Z,360
2017-05-15T12:55:25.208Z,365
2017-05-15T12:56:26.621Z,370
2017-05-15T12:57:27.985Z,355
2017-05-15T12:58:29.282Z,305
2017-05-15T12:59:30.580Z,290
2017-05-15T13:00:31.904Z,285
2017-05-15T13:01:33.154Z,300
2017-05-15T13:02:34.503Z,290
2017-05-15T13:03:35.946Z,285
2017-05-15T13:04:37.175Z,290
2017-05-15T13:05:38.524Z,310
2017-05-15T13:06:39.880Z,330
2017-05-15T13:07:41.179Z,355
2017-05-15T13:08:42.438Z,390
2017-05-15T13:09:43.715Z,405
2017-05-15T13:10:44.981Z,410
2017-05-15T13:11:46.383Z,415
2017-05-15T13:12:47.660Z,410
2017-05-15T13:13:48.886Z,400
2017-05-15T13:14:50.160Z,390
2017-05-15T13:15:51.462Z,400
2017-05-15T13:16:52.758Z,405
2017-05-15T13:17:54.141Z,410
2017-05-15T13:18:55.428Z,385
2017-05-15T13:19:56.705Z,380
2017-05-15T13:20:57.991Z,360
2017-05-15T13:21:59.283Z,345
2017-05-15T13:23:00.610Z,320
2017-05-15T13:24:01.894Z,305
2017-05-15T13:25:03.162Z,285
2017-05-15T13:26:04.421Z,275
2017-05-15T13:27:05.748Z,265
2017-05-15T13:28:07.101Z,275
2017-05-15T13:29:08.389Z,280
2017-05-15T13:30:09.652Z,300
2017-05-15T13:31:10.921Z,320
2017-05-15T13:32:12.204Z,335
2017-05-15T13:33:13.539Z,340
2017-05-15T13:34:14.821Z,325
2017-05-15T13:35:16.186Z,310
2017-05-15T13:36:17.415Z,300
2017-05-15T13:37:18.713Z,300
2017-05-15T13:38:19.983Z,295
2017-05-15T13:39:21.427Z,310
2017-05-15T13:40:22.635Z,320
2017-05-15T13:41:23.998Z,315
2017-05-15T13:42:25.283Z,310
2017-05-15T13:43:26.489Z,315
2017-05-15T13:44:27.810Z,305
2017-05-15T13:45:29.073Z,295
2017-05-15T13:46:30.350Z,285
2017-05-15T13:47:31.670Z,280
2017-05-15T13:48:32.931Z,275
2017-05-15T13:49:34.204Z,275
2017-05-15T13:50:35.546Z,270
2017-05-15T13:51:36.910Z,270
2017-05-15T13:52:38.199Z,265
2017-05-15T13:53:39.428Z,265
2017-05-15T13:54:40.774Z,255
2017-05-15T13:55:42.053Z,260
2017-05-15T13:56:43.454Z,255
2017-05-15T13:57:44.725Z,245
2017-05-15T13:58:46.066Z,245
2017-05-15T13:59:47.313Z,245
2017-05-15T14:00:48.551Z,250
2017-05-15T14:01:49.861Z,240
2017-05-15T14:02:51.103Z,230
2017-05-15T14:03:52.445Z,230
2017-05-15T14:04:53.710Z,230
2017-05-15T14:05:54.977Z,230
2017-05-15T14:06:56.269Z,230
2017-05-15T14:07:57.523Z,230
2017-05-15T14:08:58.883Z,230
2017-05-15T14:10:00.111Z,230
2017-05-15T14:11:01.377Z,230